createdAt,value
2023-02-07T00:01:53.634Z,9.23
2023-02-07T00:06:11.015Z,8.73
2023-02-07T00:10:16.884Z,8.67
2023-02-07T00:14:22.659Z,9.30
2023-02-07T00:18:28.197Z,8.40
2023-02-07T00:22:33.820Z,9.17
2023-02-07T00:26:39.337Z,8.50
2023-02-07T00:30:44.938Z,8.73
2023-02-07T00:34:50.661Z,7.83
2023-02-07T00:39:03.753Z,8.30
2023-02-07T00:43:10.488Z,7.00
2023-02-07T00:47:17.120Z,7.90
2023-02-07T00:51:25.744Z,7.90
2023-02-07T00:55:31.543Z,7.37
2023-02-07T00:59:37.001Z,7.53
2023-02-07T01:03:42.915Z,6.93
2023-02-07T01:07:48.481Z,7.00
2023-02-07T01:11:53.947Z,6.80
2023-02-07T01:15:59.754Z,7.50
2023-02-07T01:20:05.778Z,6.90
2023-02-07T01:24:11.502Z,6.33
2023-02-07T01:28:17.098Z,6.27
2023-02-07T01:32:22.986Z,6.47
2023-02-07T01:36:29.654Z,6.07
2023-02-07T01:40:38.251Z,6.23
2023-02-07T01:44:43.670Z,7.27
2023-02-07T01:48:49.653Z,6.67
2023-02-07T01:52:56.686Z,7.00
2023-02-07T01:57:08.021Z,7.40
2023-02-07T02:01:23.082Z,5.77
2023-02-07T02:05:31.423Z,6.97
2023-02-07T02:09:37.972Z,6.10
2023-02-07T02:14:09.966Z,6.00
2023-02-07T02:18:41.680Z,6.10
2023-02-07T02:23:39.896Z,6.00
2023-02-07T02:28:06.283Z,5.43
2023-02-07T02:32:39.041Z,5.77
2023-02-07T02:37:17.168Z,6.30
2023-02-07T02:41:30.594Z,5.87
2023-02-07T02:46:03.489Z,6.70
2023-02-07T02:50:29.208Z,6.20
2023-02-07T02:54:40.405Z,5.87
2023-02-07T02:59:18.312Z,6.10
2023-02-07T03:03:55.065Z,5.60
2023-02-07T03:08:39.792Z,6.37
2023-02-07T03:13:31.647Z,7.00
2023-02-07T03:18:04.985Z,5.93
2023-02-07T03:22:19.481Z,5.67
2023-02-07T03:26:26.118Z,6.03
2023-02-07T03:30:34.391Z,5.83
2023-02-07T03:35:09.693Z,6.03
2023-02-07T03:39:15.408Z,7.30
2023-02-07T03:43:28.586Z,6.20
2023-02-07T03:47:34.176Z,5.60
2023-02-07T03:51:39.622Z,6.20
2023-02-07T03:55:45.199Z,6.10
2023-02-07T03:59:50.818Z,5.67
2023-02-07T04:03:56.568Z,5.70
2023-02-07T04:08:02.485Z,5.90
2023-02-07T04:12:08.280Z,6.07
2023-02-07T04:16:13.766Z,6.50
2023-02-07T04:20:19.535Z,5.67
2023-02-07T04:24:24.978Z,6.03
2023-02-07T04:28:30.699Z,6.17
2023-02-07T04:32:36.226Z,6.50
2023-02-07T04:36:41.719Z,6.37
2023-02-07T04:40:47.223Z,5.47
2023-02-07T04:44:52.954Z,6.20
2023-02-07T04:48:58.615Z,6.07
2023-02-07T04:53:04.105Z,6.37
2023-02-07T04:57:09.677Z,5.87
2023-02-07T05:01:15.569Z,6.07
2023-02-07T05:05:21.106Z,6.10
2023-02-07T05:09:26.629Z,5.67
2023-02-07T05:13:32.470Z,5.73
2023-02-07T05:17:38.844Z,6.20
2023-02-07T05:21:44.333Z,5.60
2023-02-07T05:25:50.185Z,5.80
2023-02-07T05:29:55.627Z,5.40
2023-02-07T05:34:01.086Z,6.03
2023-02-07T05:38:10.818Z,5.60
2023-02-07T05:42:16.570Z,5.37
2023-02-07T05:46:22.118Z,5.50
2023-02-07T05:50:28.509Z,6.67
2023-02-07T05:54:34.063Z,9.90
2023-02-07T05:58:39.564Z,6.33
2023-02-07T06:02:45.635Z,6.00
2023-02-07T06:06:51.228Z,6.07
2023-02-07T06:10:56.705Z,6.20
2023-02-07T06:15:03.405Z,5.87
2023-02-07T06:19:10.760Z,6.80
2023-02-07T06:23:16.240Z,6.70
2023-02-07T06:27:21.844Z,5.40
2023-02-07T06:31:27.338Z,6.33
2023-02-07T06:35:32.879Z,6.07
2023-02-07T06:39:38.411Z,6.97
2023-02-07T06:43:43.956Z,6.77
2023-02-07T06:47:49.412Z,6.33
2023-02-07T06:51:55.102Z,6.97
2023-02-07T06:56:00.517Z,6.93
2023-02-07T07:00:06.798Z,8.63
2023-02-07T07:04:12.232Z,8.93
2023-02-07T07:08:18.744Z,7.00
2023-02-07T07:12:24.223Z,7.57
2023-02-07T07:16:29.771Z,8.57
2023-02-07T07:20:35.232Z,6.57
2023-02-07T07:24:40.692Z,7.37
2023-02-07T07:28:46.181Z,11.20
2023-02-07T07:32:51.875Z,13.33
2023-02-07T07:36:58.279Z,11.07
2023-02-07T07:41:04.242Z,9.60
2023-02-07T07:45:10.956Z,8.00
2023-02-07T07:49:17.157Z,7.30
2023-02-07T07:53:22.887Z,8.30
2023-02-07T07:57:31.026Z,7.00
2023-02-07T08:01:36.664Z,7.30
2023-02-07T08:05:42.405Z,7.33
2023-02-07T08:09:47.942Z,8.20
2023-02-07T08:13:53.457Z,8.30
2023-02-07T08:17:59.141Z,8.20
2023-02-07T08:22:04.904Z,8.70
2023-02-07T08:26:10.519Z,8.77
2023-02-07T08:30:18.887Z,8.33
2023-02-07T08:34:26.366Z,10.57
2023-02-07T08:38:31.884Z,8.73
2023-02-07T08:42:37.396Z,9.83
2023-02-07T08:46:42.891Z,9.00
2023-02-07T08:50:48.614Z,9.17
2023-02-07T08:54:54.160Z,9.70
2023-02-07T08:58:59.777Z,9.70
2023-02-07T09:03:05.658Z,9.50
2023-02-07T09:07:11.984Z,10.43
2023-02-07T09:11:18.088Z,9.57
2023-02-07T09:15:24.062Z,9.60
2023-02-07T09:19:29.589Z,9.40
2023-02-07T09:23:35.911Z,9.90
2023-02-07T09:27:41.425Z,10.50
2023-02-07T09:31:47.335Z,10.73
2023-02-07T09:35:54.089Z,10.80
2023-02-07T09:39:59.586Z,10.07
2023-02-07T09:44:26.860Z,10.47
2023-02-07T09:48:53.770Z,11.67
2023-02-07T09:53:17.474Z,10.83
2023-02-07T09:57:45.451Z,11.90
2023-02-07T10:01:58.335Z,13.10
2023-02-07T10:06:18.944Z,13.77
2023-02-07T10:10:47.193Z,13.47
2023-02-07T10:15:31.508Z,14.87
2023-02-07T10:20:00.967Z,15.70
2023-02-07T10:24:28.088Z,15.30
2023-02-07T10:28:58.535Z,15.53
2023-02-07T10:33:17.035Z,15.03
2023-02-07T10:37:29.062Z,15.67
2023-02-07T10:41:39.314Z,15.70
2023-02-07T10:45:49.891Z,16.07
2023-02-07T10:50:13.815Z,16.37
2023-02-07T10:54:24.259Z,15.97
2023-02-07T10:58:39.425Z,16.27
2023-02-07T11:02:52.267Z,16.93
2023-02-07T11:07:05.777Z,18.23
2023-02-07T11:11:20.540Z,17.70
2023-02-07T11:16:04.642Z,17.83
2023-02-07T11:20:27.190Z,17.33
2023-02-07T11:24:37.126Z,18.30
2023-02-07T11:28:43.323Z,18.13
2023-02-07T11:33:03.866Z,18.53
2023-02-07T11:37:43.546Z,15.40
2023-02-07T11:42:01.052Z,18.43
2023-02-07T11:46:10.509Z,18.40
2023-02-07T11:50:29.819Z,17.67
2023-02-07T11:54:39.290Z,18.20
2023-02-07T11:58:47.449Z,18.80
2023-02-07T12:03:06.028Z,17.97
2023-02-07T12:07:25.447Z,18.10
2023-02-07T12:11:38.439Z,17.10
2023-02-07T12:15:58.646Z,15.00
2023-02-07T12:20:26.396Z,15.40
2023-02-07T12:24:47.721Z,15.70
2023-02-07T12:29:31.604Z,16.33
2023-02-07T12:33:57.803Z,20.90
2023-02-07T12:38:12.359Z,20.70
2023-02-07T12:42:40.388Z,20.30
2023-02-07T12:47:39.718Z,18.50
2023-02-07T12:52:17.130Z,19.60
2023-02-07T12:56:55.087Z,19.53
2023-02-07T13:01:36.544Z,19.83
2023-02-07T13:05:53.933Z,20.17
2023-02-07T13:10:22.663Z,20.50
2023-02-07T13:15:11.153Z,19.30
2023-02-07T13:19:31.668Z,18.13
2023-02-07T13:23:42.319Z,18.60
2023-02-07T13:27:49.929Z,18.10
2023-02-07T13:32:24.443Z,18.10
2023-02-07T13:36:41.770Z,15.37
2023-02-07T13:41:11.950Z,16.60
2023-02-07T13:45:32.400Z,15.67
2023-02-07T13:49:49.731Z,12.87
2023-02-07T13:54:30.995Z,13.70
2023-02-07T13:58:55.126Z,13.10
2023-02-07T14:03:04.681Z,12.10
2023-02-07T14:07:26.118Z,11.60
2023-02-07T14:11:36.475Z,11.80
2023-02-07T14:15:43.952Z,10.67
2023-02-07T14:19:51.754Z,11.10
2023-02-07T14:24:09.953Z,12.53
2023-02-07T14:28:31.329Z,12.67
2023-02-07T14:32:45.377Z,11.63
2023-02-07T14:36:54.905Z,11.73
2023-02-07T14:41:14.467Z,10.30
2023-02-07T14:45:21.795Z,10.10
2023-02-07T14:49:39.125Z,9.83
2023-02-07T14:53:46.599Z,10.37
2023-02-07T14:58:00.908Z,10.90
2023-02-07T15:02:36.284Z,10.80
2023-02-07T15:06:44.781Z,10.57
2023-02-07T15:11:13.110Z,11.50
2023-02-07T15:15:48.194Z,11.30
2023-02-07T15:19:56.275Z,12.07
2023-02-07T15:24:20.847Z,12.40
2023-02-07T15:28:30.320Z,11.77
2023-02-07T15:32:43.797Z,12.50
2023-02-07T15:36:52.641Z,12.17
2023-02-07T15:40:59.104Z,11.80
2023-02-07T15:45:06.898Z,11.70
2023-02-07T15:49:40.748Z,11.00
2023-02-07T15:53:52.164Z,12.03
2023-02-07T15:57:57.995Z,11.73
2023-02-07T16:02:04.134Z,11.67
2023-02-07T16:06:21.318Z,11.30
2023-02-07T16:10:29.888Z,11.33
2023-02-07T16:14:41.198Z,11.20
2023-02-07T16:18:48.359Z,11.63
2023-02-07T16:22:57.688Z,12.97
2023-02-07T16:27:05.638Z,12.67
2023-02-07T16:31:11.218Z,12.53
2023-02-07T16:35:35.512Z,12.50
2023-02-07T16:39:41.158Z,12.50
2023-02-07T16:43:46.901Z,11.90
2023-02-07T16:47:52.559Z,12.50
2023-02-07T16:51:58.933Z,13.40
2023-02-07T16:56:04.918Z,13.27
2023-02-07T17:00:18.062Z,13.10
2023-02-07T17:04:23.656Z,13.17
2023-02-07T17:08:30.251Z,13.03
2023-02-07T17:12:35.812Z,12.50
2023-02-07T17:16:41.887Z,12.97
2023-02-07T17:20:47.998Z,13.60
2023-02-07T17:24:53.779Z,13.87
2023-02-07T17:28:59.661Z,15.07
2023-02-07T17:33:10.017Z,14.73
2023-02-07T17:37:16.415Z,14.77
2023-02-07T17:41:21.946Z,15.63
2023-02-07T17:45:29.299Z,15.00
2023-02-07T17:49:34.882Z,15.13
2023-02-07T17:53:40.397Z,14.93
2023-02-07T17:57:45.937Z,14.93
2023-02-07T18:01:52.156Z,16.77
2023-02-07T18:05:57.758Z,15.20
2023-02-07T18:10:06.782Z,15.13
2023-02-07T18:14:12.555Z,16.87
2023-02-07T18:18:17.998Z,15.83
2023-02-07T18:22:23.581Z,16.00
2023-02-07T18:26:29.125Z,16.90
2023-02-07T18:30:34.788Z,15.90
2023-02-07T18:34:41.021Z,16.20
2023-02-07T18:38:46.852Z,20.30
2023-02-07T18:42:52.822Z,17.77
2023-02-07T18:46:58.338Z,16.40
2023-02-07T18:51:07.670Z,17.10
2023-02-07T18:55:13.127Z,16.13
2023-02-07T18:59:23.770Z,16.13
2023-02-07T19:03:29.318Z,16.20
2023-02-07T19:07:34.788Z,17.37
2023-02-07T19:11:40.701Z,16.80
2023-02-07T19:15:46.193Z,15.83
2023-02-07T19:19:52.793Z,16.10
2023-02-07T19:23:59.011Z,16.97
2023-02-07T19:28:05.098Z,17.10
2023-02-07T19:32:10.630Z,16.30
2023-02-07T19:36:18.575Z,16.13
2023-02-07T19:40:24.102Z,17.10
2023-02-07T19:44:29.594Z,18.00
2023-02-07T19:48:35.039Z,16.23
2023-02-07T19:52:40.637Z,17.47
2023-02-07T19:56:46.095Z,16.70
2023-02-07T20:00:51.616Z,17.23
2023-02-07T20:04:57.132Z,16.80
2023-02-07T20:09:06.285Z,20.00
2023-02-07T20:13:12.532Z,18.13
2023-02-07T20:17:18.014Z,19.77
2023-02-07T20:21:26.646Z,21.00
2023-02-07T20:25:35.724Z,20.00
2023-02-07T20:29:41.295Z,17.27
2023-02-07T20:33:47.293Z,18.90
2023-02-07T20:37:52.786Z,17.37
2023-02-07T20:41:58.388Z,17.07
2023-02-07T20:46:13.450Z,16.90
2023-02-07T20:50:18.949Z,19.20
2023-02-07T20:54:28.345Z,18.20
2023-02-07T20:58:34.328Z,19.83
2023-02-07T21:02:39.834Z,18.23
2023-02-07T21:06:45.811Z,18.80
2023-02-07T21:10:51.525Z,16.60
2023-02-07T21:14:57.484Z,19.13
2023-02-07T21:19:03.331Z,16.47
2023-02-07T21:23:09.139Z,18.30
2023-02-07T21:27:14.682Z,18.13
2023-02-07T21:31:22.252Z,15.83
2023-02-07T21:35:27.818Z,17.77
2023-02-07T21:39:33.373Z,16.70
2023-02-07T21:43:42.208Z,16.30
2023-02-07T21:47:48.115Z,17.63
2023-02-07T21:51:53.881Z,17.87
2023-02-07T21:56:05.729Z,16.93
2023-02-07T22:00:12.777Z,15.83
2023-02-07T22:04:18.996Z,16.40
2023-02-07T22:08:24.490Z,17.90
2023-02-07T22:12:30.030Z,17.63
2023-02-07T22:16:35.607Z,17.90
2023-02-07T22:20:41.610Z,18.17
2023-02-07T22:24:50.040Z,18.50
2023-02-07T22:28:56.631Z,19.10
2023-02-07T22:33:02.219Z,18.60
2023-02-07T22:37:07.774Z,18.60
2023-02-07T22:41:13.762Z,17.60
2023-02-07T22:45:19.194Z,16.97
2023-02-07T22:49:24.781Z,17.63
2023-02-07T22:53:30.248Z,18.57
2023-02-07T22:57:35.707Z,17.80
2023-02-07T23:01:42.508Z,18.67
2023-02-07T23:05:48.036Z,18.43
2023-02-07T23:09:54.600Z,17.60
2023-02-07T23:14:00.201Z,16.20
2023-02-07T23:18:05.923Z,17.80
2023-02-07T23:22:11.451Z,17.50
2023-02-07T23:26:21.426Z,17.90
2023-02-07T23:30:26.915Z,17.47
2023-02-07T23:34:32.937Z,18.00
2023-02-07T23:38:39.276Z,17.60
2023-02-07T23:42:44.799Z,18.60
2023-02-07T23:46:50.394Z,17.13
2023-02-07T23:50:57.984Z,18.20
2023-02-07T23:55:03.727Z,17.40
2023-02-07T23:59:11.461Z,17.30
